sensor_id;sensor_type;location;lat;lon;timestamp;temperature;humidity
12588;DHT22;6359;51.450;7.346;2022-10-04T00:00:48;6.50;99.90
12588;DHT22;6359;51.450;7.346;2022-10-04T00:03:23;6.50;99.90
12588;DHT22;6359;51.450;7.346;2022-10-04T00:05:54;6.40;99.90
12588;DHT22;6359;51.450;7.346;2022-10-04T00:08:28;6.30;99.90
12588;DHT22;6359;51.450;7.346;2022-10-04T00:11:02;6.30;99.90
12588;DHT22;6359;51.450;7.346;2022-10-04T00:13:31;6.40;99.90
12588;DHT22;6359;51.450;7.346;2022-10-04T00:15:59;6.40;99.90
12588;DHT22;6359;51.450;7.346;2022-10-04T00:18:29;6.40;99.90
12588;DHT22;6359;51.450;7.346;2022-10-04T00:21:01;6.40;99.90
12588;DHT22;6359;51.450;7.346;2022-10-04T00:23:41;6.50;99.90
12588;DHT22;6359;51.450;7.346;2022-10-04T00:28:57;6.60;99.90
12588;DHT22;6359;51.450;7.346;2022-10-04T00:31:26;6.70;99.90
12588;DHT22;6359;51.450;7.346;2022-10-04T00:33:56;6.80;99.90
12588;DHT22;6359;51.450;7.346;2022-10-04T00:36:49;6.80;99.90
12588;DHT22;6359;51.450;7.346;2022-10-04T00:42:36;6.80;99.90
12588;DHT22;6359;51.450;7.346;2022-10-04T00:45:19;7.00;99.90
12588;DHT22;6359;51.450;7.346;2022-10-04T00:48:02;7.00;99.90
12588;DHT22;6359;51.450;7.346;2022-10-04T00:50:35;7.10;99.90
12588;DHT22;6359;51.450;7.346;2022-10-04T00:53:12;7.10;99.90
12588;DHT22;6359;51.450;7.346;2022-10-04T00:55:45;7.10;99.90
12588;DHT22;6359;51.450;7.346;2022-10-04T00:58:16;7.10;99.90
12588;DHT22;6359;51.450;7.346;2022-10-04T01:00:46;7.10;99.90
12588;DHT22;6359;51.450;7.346;2022-10-04T01:03:17;7.20;99.90
12588;DHT22;6359;51.450;7.346;2022-10-04T01:05:48;7.30;99.90
12588;DHT22;6359;51.450;7.346;2022-10-04T01:08:21;7.40;99.90
12588;DHT22;6359;51.450;7.346;2022-10-04T01:10:53;7.40;99.90
12588;DHT22;6359;51.450;7.346;2022-10-04T01:13:24;7.40;99.90
12588;DHT22;6359;51.450;7.346;2022-10-04T01:15:55;7.30;99.90
12588;DHT22;6359;51.450;7.346;2022-10-04T01:18:31;7.30;99.90
12588;DHT22;6359;51.450;7.346;2022-10-04T01:21:01;7.20;99.90
12588;DHT22;6359;51.450;7.346;2022-10-04T01:23:43;7.20;99.90
12588;DHT22;6359;51.450;7.346;2022-10-04T01:26:37;7.20;99.90
12588;DHT22;6359;51.450;7.346;2022-10-04T01:29:08;7.20;99.90
12588;DHT22;6359;51.450;7.346;2022-10-04T01:31:37;7.20;99.90
12588;DHT22;6359;51.450;7.346;2022-10-04T01:34:05;7.20;99.90
12588;DHT22;6359;51.450;7.346;2022-10-04T01:36:33;7.40;99.90
12588;DHT22;6359;51.450;7.346;2022-10-04T01:39:02;7.40;99.90
12588;DHT22;6359;51.450;7.346;2022-10-04T01:41:37;7.50;99.90
12588;DHT22;6359;51.450;7.346;2022-10-04T01:44:08;7.60;99.90
12588;DHT22;6359;51.450;7.346;2022-10-04T01:46:36;7.70;99.90
12588;DHT22;6359;51.450;7.346;2022-10-04T01:49:09;7.70;99.90
12588;DHT22;6359;51.450;7.346;2022-10-04T01:51:43;7.70;99.90
12588;DHT22;6359;51.450;7.346;2022-10-04T01:54:17;7.80;99.90
12588;DHT22;6359;51.450;7.346;2022-10-04T01:56:48;7.70;99.90
12588;DHT22;6359;51.450;7.346;2022-10-04T01:59:20;7.80;99.90
12588;DHT22;6359;51.450;7.346;2022-10-04T02:01:52;7.80;99.90
12588;DHT22;6359;51.450;7.346;2022-10-04T02:04:26;7.90;99.90
12588;DHT22;6359;51.450;7.346;2022-10-04T02:06:56;7.90;99.90
12588;DHT22;6359;51.450;7.346;2022-10-04T02:09:27;7.90;99.90
12588;DHT22;6359;51.450;7.346;2022-10-04T02:11:55;8.00;99.90
12588;DHT22;6359;51.450;7.346;2022-10-04T02:14:24;7.90;99.90
12588;DHT22;6359;51.450;7.346;2022-10-04T02:16:52;7.90;99.90
12588;DHT22;6359;51.450;7.346;2022-10-04T02:19:21;8.00;99.90
12588;DHT22;6359;51.450;7.346;2022-10-04T02:21:50;8.10;99.90
12588;DHT22;6359;51.450;7.346;2022-10-04T02:24:18;8.10;99.90
12588;DHT22;6359;51.450;7.346;2022-10-04T02:26:50;8.10;99.90
12588;DHT22;6359;51.450;7.346;2022-10-04T02:29:18;7.90;99.90
12588;DHT22;6359;51.450;7.346;2022-10-04T02:31:46;7.90;99.90
12588;DHT22;6359;51.450;7.346;2022-10-04T02:34:33;8.00;99.90
12588;DHT22;6359;51.450;7.346;2022-10-04T02:37:01;8.00;99.90
12588;DHT22;6359;51.450;7.346;2022-10-04T02:39:32;8.10;99.90
12588;DHT22;6359;51.450;7.346;2022-10-04T02:42:03;8.20;99.90
12588;DHT22;6359;51.450;7.346;2022-10-04T02:44:40;8.20;99.90
12588;DHT22;6359;51.450;7.346;2022-10-04T02:47:12;8.20;99.90
12588;DHT22;6359;51.450;7.346;2022-10-04T02:49:44;8.30;99.90
12588;DHT22;6359;51.450;7.346;2022-10-04T02:52:17;8.30;99.90
12588;DHT22;6359;51.450;7.346;2022-10-04T02:54:49;8.30;99.90
12588;DHT22;6359;51.450;7.346;2022-10-04T02:57:20;8.30;99.90
12588;DHT22;6359;51.450;7.346;2022-10-04T02:59:48;8.20;99.90
12588;DHT22;6359;51.450;7.346;2022-10-04T03:02:24;8.20;99.90
12588;DHT22;6359;51.450;7.346;2022-10-04T03:04:53;8.10;99.90
12588;DHT22;6359;51.450;7.346;2022-10-04T03:07:20;8.00;99.90
12588;DHT22;6359;51.450;7.346;2022-10-04T03:09:48;7.90;99.90
12588;DHT22;6359;51.450;7.346;2022-10-04T03:12:17;8.00;99.90
12588;DHT22;6359;51.450;7.346;2022-10-04T03:14:46;8.10;99.90
12588;DHT22;6359;51.450;7.346;2022-10-04T03:17:15;8.10;99.90
12588;DHT22;6359;51.450;7.346;2022-10-04T03:19:43;8.20;99.90
12588;DHT22;6359;51.450;7.346;2022-10-04T03:22:13;8.30;99.90
12588;DHT22;6359;51.450;7.346;2022-10-04T03:24:43;8.40;99.90
12588;DHT22;6359;51.450;7.346;2022-10-04T03:27:15;8.30;99.90
12588;DHT22;6359;51.450;7.346;2022-10-04T03:29:45;8.40;99.90
12588;DHT22;6359;51.450;7.346;2022-10-04T03:32:14;8.30;99.90
12588;DHT22;6359;51.450;7.346;2022-10-04T03:34:45;8.20;99.90
12588;DHT22;6359;51.450;7.346;2022-10-04T03:37:15;8.20;99.90
12588;DHT22;6359;51.450;7.346;2022-10-04T03:39:45;8.10;99.90
12588;DHT22;6359;51.450;7.346;2022-10-04T03:42:15;8.10;99.90
12588;DHT22;6359;51.450;7.346;2022-10-04T03:44:44;8.20;99.90
12588;DHT22;6359;51.450;7.346;2022-10-04T03:47:15;8.30;99.90
12588;DHT22;6359;51.450;7.346;2022-10-04T03:49:43;8.30;99.90
12588;DHT22;6359;51.450;7.346;2022-10-04T03:52:17;8.20;99.90
12588;DHT22;6359;51.450;7.346;2022-10-04T03:54:48;8.20;99.90
12588;DHT22;6359;51.450;7.346;2022-10-04T03:57:17;8.20;99.90
12588;DHT22;6359;51.450;7.346;2022-10-04T03:59:46;8.10;99.90
12588;DHT22;6359;51.450;7.346;2022-10-04T04:02:19;8.00;99.90
12588;DHT22;6359;51.450;7.346;2022-10-04T04:04:54;8.00;99.90
12588;DHT22;6359;51.450;7.346;2022-10-04T04:07:25;8.00;99.90
12588;DHT22;6359;51.450;7.346;2022-10-04T04:10:00;8.10;99.90
12588;DHT22;6359;51.450;7.346;2022-10-04T04:12:36;8.10;99.90
12588;DHT22;6359;51.450;7.346;2022-10-04T04:15:09;8.10;99.90
12588;DHT22;6359;51.450;7.346;2022-10-04T04:17:38;8.10;99.90
12588;DHT22;6359;51.450;7.346;2022-10-04T04:20:16;8.20;99.90
12588;DHT22;6359;51.450;7.346;2022-10-04T04:22:48;8.20;99.90
12588;DHT22;6359;51.450;7.346;2022-10-04T04:25:16;8.20;99.90
12588;DHT22;6359;51.450;7.346;2022-10-04T04:28:00;8.20;99.90
12588;DHT22;6359;51.450;7.346;2022-10-04T04:30:30;8.10;99.90
12588;DHT22;6359;51.450;7.346;2022-10-04T04:33:07;8.00;99.90
12588;DHT22;6359;51.450;7.346;2022-10-04T04:35:35;7.90;99.90
12588;DHT22;6359;51.450;7.346;2022-10-04T04:38:05;7.80;99.90
12588;DHT22;6359;51.450;7.346;2022-10-04T04:40:32;7.70;99.90
12588;DHT22;6359;51.450;7.346;2022-10-04T04:43:01;7.80;99.90
12588;DHT22;6359;51.450;7.346;2022-10-04T04:45:31;7.80;99.90
12588;DHT22;6359;51.450;7.346;2022-10-04T04:48:00;7.70;99.90
12588;DHT22;6359;51.450;7.346;2022-10-04T04:50:30;7.60;99.90
12588;DHT22;6359;51.450;7.346;2022-10-04T04:53:03;7.50;99.90
12588;DHT22;6359;51.450;7.346;2022-10-04T04:55:33;7.40;99.90
12588;DHT22;6359;51.450;7.346;2022-10-04T04:58:03;7.40;99.90
12588;DHT22;6359;51.450;7.346;2022-10-04T05:00:35;7.40;99.90
12588;DHT22;6359;51.450;7.346;2022-10-04T05:03:05;7.40;99.90
12588;DHT22;6359;51.450;7.346;2022-10-04T05:05:46;7.50;99.90
12588;DHT22;6359;51.450;7.346;2022-10-04T05:08:19;7.60;99.90
12588;DHT22;6359;51.450;7.346;2022-10-04T05:10:53;7.70;99.90
12588;DHT22;6359;51.450;7.346;2022-10-04T05:13:30;7.80;99.90
12588;DHT22;6359;51.450;7.346;2022-10-04T05:16:04;7.70;99.90
12588;DHT22;6359;51.450;7.346;2022-10-04T05:18:38;7.80;99.90
12588;DHT22;6359;51.450;7.346;2022-10-04T05:21:12;7.90;99.90
12588;DHT22;6359;51.450;7.346;2022-10-04T05:23:49;8.00;99.90
12588;DHT22;6359;51.450;7.346;2022-10-04T05:26:40;8.00;99.90
12588;DHT22;6359;51.450;7.346;2022-10-04T05:29:13;8.10;99.90
12588;DHT22;6359;51.450;7.346;2022-10-04T05:31:45;8.10;99.90
12588;DHT22;6359;51.450;7.346;2022-10-04T05:34:20;8.30;99.90
12588;DHT22;6359;51.450;7.346;2022-10-04T05:36:55;8.50;99.90
12588;DHT22;6359;51.450;7.346;2022-10-04T05:39:26;8.60;99.90
12588;DHT22;6359;51.450;7.346;2022-10-04T05:42:01;8.60;99.90
12588;DHT22;6359;51.450;7.346;2022-10-04T05:44:36;8.70;99.90
12588;DHT22;6359;51.450;7.346;2022-10-04T05:47:13;8.80;99.90
12588;DHT22;6359;51.450;7.346;2022-10-04T05:49:42;8.80;99.90
12588;DHT22;6359;51.450;7.346;2022-10-04T05:52:13;9.00;99.90
12588;DHT22;6359;51.450;7.346;2022-10-04T05:54:41;9.00;99.90
12588;DHT22;6359;51.450;7.346;2022-10-04T05:57:29;9.00;99.90
12588;DHT22;6359;51.450;7.346;2022-10-04T06:00:10;9.00;99.90
12588;DHT22;6359;51.450;7.346;2022-10-04T06:02:58;9.00;99.90
12588;DHT22;6359;51.450;7.346;2022-10-04T06:05:35;9.00;99.90
12588;DHT22;6359;51.450;7.346;2022-10-04T06:08:12;9.00;99.90
12588;DHT22;6359;51.450;7.346;2022-10-04T06:11:00;9.00;99.90
12588;DHT22;6359;51.450;7.346;2022-10-04T06:16:32;9.00;99.90
12588;DHT22;6359;51.450;7.346;2022-10-04T06:19:33;9.00;99.90
12588;DHT22;6359;51.450;7.346;2022-10-04T06:22:14;9.10;99.90
12588;DHT22;6359;51.450;7.346;2022-10-04T06:24:43;9.20;99.90
12588;DHT22;6359;51.450;7.346;2022-10-04T06:27:17;9.20;99.90
12588;DHT22;6359;51.450;7.346;2022-10-04T06:29:48;9.20;99.90
12588;DHT22;6359;51.450;7.346;2022-10-04T06:32:50;9.30;99.90
12588;DHT22;6359;51.450;7.346;2022-10-04T06:44:49;9.70;99.90
12588;DHT22;6359;51.450;7.346;2022-10-04T06:47:28;9.90;99.90
12588;DHT22;6359;51.450;7.346;2022-10-04T06:50:05;10.00;99.90
12588;DHT22;6359;51.450;7.346;2022-10-04T06:52:51;10.20;99.90
12588;DHT22;6359;51.450;7.346;2022-10-04T06:55:58;10.20;99.90
12588;DHT22;6359;51.450;7.346;2022-10-04T06:58:44;10.40;99.90
12588;DHT22;6359;51.450;7.346;2022-10-04T07:01:23;10.50;99.90
12588;DHT22;6359;51.450;7.346;2022-10-04T07:03:55;10.60;99.90
12588;DHT22;6359;51.450;7.346;2022-10-04T07:06:26;10.80;99.90
12588;DHT22;6359;51.450;7.346;2022-10-04T07:08:58;10.80;99.90
12588;DHT22;6359;51.450;7.346;2022-10-04T07:11:34;10.90;99.90
12588;DHT22;6359;51.450;7.346;2022-10-04T07:14:12;11.00;99.90
12588;DHT22;6359;51.450;7.346;2022-10-04T07:16:44;11.10;99.90
12588;DHT22;6359;51.450;7.346;2022-10-04T07:19:36;11.20;99.90
12588;DHT22;6359;51.450;7.346;2022-10-04T07:22:19;11.40;99.90
12588;DHT22;6359;51.450;7.346;2022-10-04T07:24:58;11.50;99.90
12588;DHT22;6359;51.450;7.346;2022-10-04T07:27:32;11.70;99.90
12588;DHT22;6359;51.450;7.346;2022-10-04T07:30:03;12.00;99.90
12588;DHT22;6359;51.450;7.346;2022-10-04T07:32:33;12.20;99.90
12588;DHT22;6359;51.450;7.346;2022-10-04T07:35:03;12.60;99.90
12588;DHT22;6359;51.450;7.346;2022-10-04T07:37:35;13.30;99.90
12588;DHT22;6359;51.450;7.346;2022-10-04T07:40:20;14.00;99.90
12588;DHT22;6359;51.450;7.346;2022-10-04T07:42:51;14.40;99.90
12588;DHT22;6359;51.450;7.346;2022-10-04T07:45:21;14.90;99.90
12588;DHT22;6359;51.450;7.346;2022-10-04T07:47:49;15.30;99.90
12588;DHT22;6359;51.450;7.346;2022-10-04T07:50:22;15.60;99.90
12588;DHT22;6359;51.450;7.346;2022-10-04T07:52:55;15.60;99.90
12588;DHT22;6359;51.450;7.346;2022-10-04T07:55:28;15.60;99.90
12588;DHT22;6359;51.450;7.346;2022-10-04T07:58:07;15.80;99.90
12588;DHT22;6359;51.450;7.346;2022-10-04T08:00:45;15.60;99.90
12588;DHT22;6359;51.450;7.346;2022-10-04T08:03:26;15.80;99.90
12588;DHT22;6359;51.450;7.346;2022-10-04T08:06:06;15.90;99.90
12588;DHT22;6359;51.450;7.346;2022-10-04T08:11:39;16.30;99.90
12588;DHT22;6359;51.450;7.346;2022-10-04T08:14:17;16.20;99.90
12588;DHT22;6359;51.450;7.346;2022-10-04T08:16:56;15.90;99.90
12588;DHT22;6359;51.450;7.346;2022-10-04T08:19:37;15.70;99.90
12588;DHT22;6359;51.450;7.346;2022-10-04T08:22:17;15.40;99.90
12588;DHT22;6359;51.450;7.346;2022-10-04T08:24:56;15.20;99.90
12588;DHT22;6359;51.450;7.346;2022-10-04T08:27:38;16.00;99.90
12588;DHT22;6359;51.450;7.346;2022-10-04T08:30:39;16.90;99.90
12588;DHT22;6359;51.450;7.346;2022-10-04T08:33:11;16.90;99.90
12588;DHT22;6359;51.450;7.346;2022-10-04T08:35:46;17.30;99.90
12588;DHT22;6359;51.450;7.346;2022-10-04T08:38:47;17.60;99.90
12588;DHT22;6359;51.450;7.346;2022-10-04T08:47:56;19.80;99.90
12588;DHT22;6359;51.450;7.346;2022-10-04T08:51:11;21.60;99.90
12588;DHT22;6359;51.450;7.346;2022-10-04T08:56:57;23.20;99.90
12588;DHT22;6359;51.450;7.346;2022-10-04T09:00:03;23.10;99.90
12588;DHT22;6359;51.450;7.346;2022-10-04T09:03:02;23.60;99.90
12588;DHT22;6359;51.450;7.346;2022-10-04T09:06:10;23.50;99.90
12588;DHT22;6359;51.450;7.346;2022-10-04T09:09:19;23.80;99.90
12588;DHT22;6359;51.450;7.346;2022-10-04T09:12:14;24.00;99.90
12588;DHT22;6359;51.450;7.346;2022-10-04T09:15:06;24.80;98.00
12588;DHT22;6359;51.450;7.346;2022-10-04T09:17:43;25.00;98.00
12588;DHT22;6359;51.450;7.346;2022-10-04T09:20:20;25.20;97.20
12588;DHT22;6359;51.450;7.346;2022-10-04T09:22:54;25.00;96.80
12588;DHT22;6359;51.450;7.346;2022-10-04T09:25:30;24.50;96.50
12588;DHT22;6359;51.450;7.346;2022-10-04T09:31:10;24.40;97.90
12588;DHT22;6359;51.450;7.346;2022-10-04T09:33:50;24.40;97.30
12588;DHT22;6359;51.450;7.346;2022-10-04T09:36:40;24.80;97.00
12588;DHT22;6359;51.450;7.346;2022-10-04T09:39:28;24.60;97.50
12588;DHT22;6359;51.450;7.346;2022-10-04T09:42:33;25.20;94.10
12588;DHT22;6359;51.450;7.346;2022-10-04T09:48:24;25.20;93.70
12588;DHT22;6359;51.450;7.346;2022-10-04T09:51:17;25.30;93.20
12588;DHT22;6359;51.450;7.346;2022-10-04T09:54:02;25.50;94.90
12588;DHT22;6359;51.450;7.346;2022-10-04T09:57:05;24.80;93.70
12588;DHT22;6359;51.450;7.346;2022-10-04T09:59:53;25.10;94.90
12588;DHT22;6359;51.450;7.346;2022-10-04T10:05:48;24.40;95.10
12588;DHT22;6359;51.450;7.346;2022-10-04T10:08:24;24.50;92.50
12588;DHT22;6359;51.450;7.346;2022-10-04T10:10:57;25.10;93.90
12588;DHT22;6359;51.450;7.346;2022-10-04T10:14:16;25.70;91.50
12588;DHT22;6359;51.450;7.346;2022-10-04T10:16:55;25.30;90.80
12588;DHT22;6359;51.450;7.346;2022-10-04T10:19:52;24.70;92.40
12588;DHT22;6359;51.450;7.346;2022-10-04T10:22:52;24.50;92.50
12588;DHT22;6359;51.450;7.346;2022-10-04T10:25:39;24.70;91.60
12588;DHT22;6359;51.450;7.346;2022-10-04T10:28:30;24.60;92.80
12588;DHT22;6359;51.450;7.346;2022-10-04T10:31:16;24.50;92.70
12588;DHT22;6359;51.450;7.346;2022-10-04T10:34:28;23.70;95.00
12588;DHT22;6359;51.450;7.346;2022-10-04T10:37:08;23.80;96.20
12588;DHT22;6359;51.450;7.346;2022-10-04T10:40:05;23.90;95.20
12588;DHT22;6359;51.450;7.346;2022-10-04T10:42:55;24.10;94.40
12588;DHT22;6359;51.450;7.346;2022-10-04T10:45:41;23.80;94.00
12588;DHT22;6359;51.450;7.346;2022-10-04T10:48:14;23.30;97.70
12588;DHT22;6359;51.450;7.346;2022-10-04T10:50:53;23.40;96.00
12588;DHT22;6359;51.450;7.346;2022-10-04T10:54:08;23.60;95.80
12588;DHT22;6359;51.450;7.346;2022-10-04T10:56:51;23.70;95.50
12588;DHT22;6359;51.450;7.346;2022-10-04T10:59:45;23.50;97.80
12588;DHT22;6359;51.450;7.346;2022-10-04T11:02:35;23.70;96.80
12588;DHT22;6359;51.450;7.346;2022-10-04T11:05:28;23.30;96.40
12588;DHT22;6359;51.450;7.346;2022-10-04T11:08:29;23.50;94.10
12588;DHT22;6359;51.450;7.346;2022-10-04T11:11:07;23.30;97.70
12588;DHT22;6359;51.450;7.346;2022-10-04T11:14:08;23.30;96.20
12588;DHT22;6359;51.450;7.346;2022-10-04T11:17:14;22.90;95.50
12588;DHT22;6359;51.450;7.346;2022-10-04T11:20:20;22.50;96.00
12588;DHT22;6359;51.450;7.346;2022-10-04T11:29:11;20.80;99.90
12588;DHT22;6359;51.450;7.346;2022-10-04T11:32:14;21.30;99.90
12588;DHT22;6359;51.450;7.346;2022-10-04T11:35:16;21.60;99.90
12588;DHT22;6359;51.450;7.346;2022-10-04T11:37:59;21.70;99.90
12588;DHT22;6359;51.450;7.346;2022-10-04T11:40:42;21.10;99.90
12588;DHT22;6359;51.450;7.346;2022-10-04T11:43:35;20.90;99.90
12588;DHT22;6359;51.450;7.346;2022-10-04T11:46:15;21.00;99.90
12588;DHT22;6359;51.450;7.346;2022-10-04T11:48:58;20.70;99.90
12588;DHT22;6359;51.450;7.346;2022-10-04T11:52:07;20.90;99.90
12588;DHT22;6359;51.450;7.346;2022-10-04T11:58:02;20.50;99.90
12588;DHT22;6359;51.450;7.346;2022-10-04T12:00:55;20.20;99.90
12588;DHT22;6359;51.450;7.346;2022-10-04T12:03:46;20.10;99.90
12588;DHT22;6359;51.450;7.346;2022-10-04T12:06:32;20.00;99.90
12588;DHT22;6359;51.450;7.346;2022-10-04T12:09:12;20.00;99.90
12588;DHT22;6359;51.450;7.346;2022-10-04T12:12:01;20.20;99.90
12588;DHT22;6359;51.450;7.346;2022-10-04T12:15:02;20.00;99.90
12588;DHT22;6359;51.450;7.346;2022-10-04T12:17:55;20.10;99.90
12588;DHT22;6359;51.450;7.346;2022-10-04T12:20:56;20.10;99.90
12588;DHT22;6359;51.450;7.346;2022-10-04T12:23:56;20.40;99.90
12588;DHT22;6359;51.450;7.346;2022-10-04T12:26:54;20.60;99.90
12588;DHT22;6359;51.450;7.346;2022-10-04T12:32:37;20.90;99.90
12588;DHT22;6359;51.450;7.346;2022-10-04T12:35:18;20.60;99.90
12588;DHT22;6359;51.450;7.346;2022-10-04T12:38:14;20.20;99.90
12588;DHT22;6359;51.450;7.346;2022-10-04T12:40:49;20.40;99.90
12588;DHT22;6359;51.450;7.346;2022-10-04T12:43:20;20.50;99.90
12588;DHT22;6359;51.450;7.346;2022-10-04T12:46:06;20.50;99.90
12588;DHT22;6359;51.450;7.346;2022-10-04T12:48:45;20.40;99.90
12588;DHT22;6359;51.450;7.346;2022-10-04T12:51:39;20.50;99.90
12588;DHT22;6359;51.450;7.346;2022-10-04T12:54:31;20.50;99.90
12588;DHT22;6359;51.450;7.346;2022-10-04T13:00:13;20.50;99.90
12588;DHT22;6359;51.450;7.346;2022-10-04T13:03:13;20.30;99.90
12588;DHT22;6359;51.450;7.346;2022-10-04T13:05:53;20.20;99.90
12588;DHT22;6359;51.450;7.346;2022-10-04T13:08:36;20.10;99.90
12588;DHT22;6359;51.450;7.346;2022-10-04T13:14:33;20.00;99.90
12588;DHT22;6359;51.450;7.346;2022-10-04T13:17:12;20.00;99.90
12588;DHT22;6359;51.450;7.346;2022-10-04T13:19:50;20.00;99.90
12588;DHT22;6359;51.450;7.346;2022-10-04T13:22:28;20.00;99.90
12588;DHT22;6359;51.450;7.346;2022-10-04T13:25:07;20.10;99.90
12588;DHT22;6359;51.450;7.346;2022-10-04T13:27:45;20.20;99.90
12588;DHT22;6359;51.450;7.346;2022-10-04T13:30:20;20.30;99.90
12588;DHT22;6359;51.450;7.346;2022-10-04T13:33:03;20.30;99.90
12588;DHT22;6359;51.450;7.346;2022-10-04T13:35:35;20.40;99.90
12588;DHT22;6359;51.450;7.346;2022-10-04T13:38:32;20.50;99.90
12588;DHT22;6359;51.450;7.346;2022-10-04T13:41:17;20.30;99.90
12588;DHT22;6359;51.450;7.346;2022-10-04T13:44:04;20.30;99.90
12588;DHT22;6359;51.450;7.346;2022-10-04T13:46:43;20.30;99.90
12588;DHT22;6359;51.450;7.346;2022-10-04T13:49:28;20.10;99.90
12588;DHT22;6359;51.450;7.346;2022-10-04T13:52:12;20.10;99.90
12588;DHT22;6359;51.450;7.346;2022-10-04T13:55:15;20.10;99.90
12588;DHT22;6359;51.450;7.346;2022-10-04T13:58:15;20.10;99.90
12588;DHT22;6359;51.450;7.346;2022-10-04T14:01:03;20.10;99.90
12588;DHT22;6359;51.450;7.346;2022-10-04T14:03:47;20.20;99.90
12588;DHT22;6359;51.450;7.346;2022-10-04T14:06:42;20.20;99.90
12588;DHT22;6359;51.450;7.346;2022-10-04T14:09:32;20.00;99.90
12588;DHT22;6359;51.450;7.346;2022-10-04T14:12:50;20.00;99.90
12588;DHT22;6359;51.450;7.346;2022-10-04T14:24:56;19.80;99.90
12588;DHT22;6359;51.450;7.346;2022-10-04T14:28:02;19.90;99.90
12588;DHT22;6359;51.450;7.346;2022-10-04T14:30:38;20.00;99.90
12588;DHT22;6359;51.450;7.346;2022-10-04T14:33:36;20.00;99.90
12588;DHT22;6359;51.450;7.346;2022-10-04T14:39:39;19.90;99.90
12588;DHT22;6359;51.450;7.346;2022-10-04T14:42:32;19.80;99.90
12588;DHT22;6359;51.450;7.346;2022-10-04T14:45:20;19.70;99.90
12588;DHT22;6359;51.450;7.346;2022-10-04T14:48:17;19.70;99.90
12588;DHT22;6359;51.450;7.346;2022-10-04T14:51:03;19.70;99.90
12588;DHT22;6359;51.450;7.346;2022-10-04T14:53:39;19.80;99.90
12588;DHT22;6359;51.450;7.346;2022-10-04T14:59:31;19.80;99.90
12588;DHT22;6359;51.450;7.346;2022-10-04T15:02:21;19.80;99.90
12588;DHT22;6359;51.450;7.346;2022-10-04T15:05:27;19.70;99.90
12588;DHT22;6359;51.450;7.346;2022-10-04T15:08:10;19.70;99.90
12588;DHT22;6359;51.450;7.346;2022-10-04T15:10:48;19.50;99.90
12588;DHT22;6359;51.450;7.346;2022-10-04T15:13:24;19.40;99.90
12588;DHT22;6359;51.450;7.346;2022-10-04T15:16:01;19.30;99.90
12588;DHT22;6359;51.450;7.346;2022-10-04T15:18:38;19.30;99.90
12588;DHT22;6359;51.450;7.346;2022-10-04T15:24:22;19.00;99.90
12588;DHT22;6359;51.450;7.346;2022-10-04T15:29:53;18.90;99.90
12588;DHT22;6359;51.450;7.346;2022-10-04T15:32:26;19.00;99.90
12588;DHT22;6359;51.450;7.346;2022-10-04T15:35:01;19.00;99.90
12588;DHT22;6359;51.450;7.346;2022-10-04T15:37:40;19.00;99.90
12588;DHT22;6359;51.450;7.346;2022-10-04T15:40:32;19.00;99.90
12588;DHT22;6359;51.450;7.346;2022-10-04T15:43:22;19.00;99.90
12588;DHT22;6359;51.450;7.346;2022-10-04T15:46:22;18.90;99.90
12588;DHT22;6359;51.450;7.346;2022-10-04T15:52:10;18.50;99.90
12588;DHT22;6359;51.450;7.346;2022-10-04T15:55:19;18.30;99.90
12588;DHT22;6359;51.450;7.346;2022-10-04T15:58:13;18.10;99.90
12588;DHT22;6359;51.450;7.346;2022-10-04T16:00:55;18.00;99.90
12588;DHT22;6359;51.450;7.346;2022-10-04T16:03:33;17.90;99.90
12588;DHT22;6359;51.450;7.346;2022-10-04T16:06:09;17.70;99.90
12588;DHT22;6359;51.450;7.346;2022-10-04T16:11:52;17.60;99.90
12588;DHT22;6359;51.450;7.346;2022-10-04T16:17:43;17.20;99.90
12588;DHT22;6359;51.450;7.346;2022-10-04T16:20:48;17.10;99.90
12588;DHT22;6359;51.450;7.346;2022-10-04T16:23:27;16.90;99.90
12588;DHT22;6359;51.450;7.346;2022-10-04T16:25:55;16.70;99.90
12588;DHT22;6359;51.450;7.346;2022-10-04T16:31:38;16.30;99.90
12588;DHT22;6359;51.450;7.346;2022-10-04T16:34:23;16.00;99.90
12588;DHT22;6359;51.450;7.346;2022-10-04T16:36:57;15.80;99.90
12588;DHT22;6359;51.450;7.346;2022-10-04T16:39:33;15.60;99.90
12588;DHT22;6359;51.450;7.346;2022-10-04T16:42:20;15.40;99.90
12588;DHT22;6359;51.450;7.346;2022-10-04T16:44:50;15.10;99.90
12588;DHT22;6359;51.450;7.346;2022-10-04T16:47:22;14.90;99.90
12588;DHT22;6359;51.450;7.346;2022-10-04T16:49:52;14.70;99.90
12588;DHT22;6359;51.450;7.346;2022-10-04T17:04:54;13.70;99.90
12588;DHT22;6359;51.450;7.346;2022-10-04T17:07:35;13.60;99.90
12588;DHT22;6359;51.450;7.346;2022-10-04T17:10:18;13.50;99.90
12588;DHT22;6359;51.450;7.346;2022-10-04T17:13:05;13.40;99.90
12588;DHT22;6359;51.450;7.346;2022-10-04T17:15:47;13.30;99.90
12588;DHT22;6359;51.450;7.346;2022-10-04T17:18:19;13.10;99.90
12588;DHT22;6359;51.450;7.346;2022-10-04T17:20:55;12.90;99.90
12588;DHT22;6359;51.450;7.346;2022-10-04T17:23:59;12.80;99.90
12588;DHT22;6359;51.450;7.346;2022-10-04T17:26:46;12.70;99.90
12588;DHT22;6359;51.450;7.346;2022-10-04T17:29:33;12.60;99.90
12588;DHT22;6359;51.450;7.346;2022-10-04T17:32:08;12.60;99.90
12588;DHT22;6359;51.450;7.346;2022-10-04T17:34:50;12.50;99.90
12588;DHT22;6359;51.450;7.346;2022-10-04T17:37:26;12.40;99.90
12588;DHT22;6359;51.450;7.346;2022-10-04T17:43:01;12.20;99.90
12588;DHT22;6359;51.450;7.346;2022-10-04T17:45:49;12.10;99.90
12588;DHT22;6359;51.450;7.346;2022-10-04T17:48:20;11.90;99.90
12588;DHT22;6359;51.450;7.346;2022-10-04T17:51:26;11.80;99.90
12588;DHT22;6359;51.450;7.346;2022-10-04T17:54:14;11.60;99.90
12588;DHT22;6359;51.450;7.346;2022-10-04T17:57:12;11.50;99.90
12588;DHT22;6359;51.450;7.346;2022-10-04T17:59:43;11.40;99.90
12588;DHT22;6359;51.450;7.346;2022-10-04T18:02:18;11.40;99.90
12588;DHT22;6359;51.450;7.346;2022-10-04T18:04:50;11.30;99.90
12588;DHT22;6359;51.450;7.346;2022-10-04T18:07:22;11.30;99.90
12588;DHT22;6359;51.450;7.346;2022-10-04T18:09:51;11.20;99.90
12588;DHT22;6359;51.450;7.346;2022-10-04T18:12:26;11.10;99.90
12588;DHT22;6359;51.450;7.346;2022-10-04T18:15:01;11.00;99.90
12588;DHT22;6359;51.450;7.346;2022-10-04T18:17:37;11.00;99.90
12588;DHT22;6359;51.450;7.346;2022-10-04T18:20:26;10.90;99.90
12588;DHT22;6359;51.450;7.346;2022-10-04T18:22:57;10.90;99.90
12588;DHT22;6359;51.450;7.346;2022-10-04T18:25:26;10.80;99.90
12588;DHT22;6359;51.450;7.346;2022-10-04T18:28:01;10.70;99.90
12588;DHT22;6359;51.450;7.346;2022-10-04T18:30:31;10.60;99.90
12588;DHT22;6359;51.450;7.346;2022-10-04T18:33:00;10.60;99.90
12588;DHT22;6359;51.450;7.346;2022-10-04T18:35:31;10.50;99.90
12588;DHT22;6359;51.450;7.346;2022-10-04T18:38:19;10.50;99.90
12588;DHT22;6359;51.450;7.346;2022-10-04T18:40:53;10.40;99.90
12588;DHT22;6359;51.450;7.346;2022-10-04T18:43:25;10.40;99.90
12588;DHT22;6359;51.450;7.346;2022-10-04T18:46:02;10.30;99.90
12588;DHT22;6359;51.450;7.346;2022-10-04T18:48:40;10.30;99.90
12588;DHT22;6359;51.450;7.346;2022-10-04T18:51:23;10.30;99.90
12588;DHT22;6359;51.450;7.346;2022-10-04T18:54:03;10.20;99.90
12588;DHT22;6359;51.450;7.346;2022-10-04T18:56:38;10.20;99.90
12588;DHT22;6359;51.450;7.346;2022-10-04T18:59:14;10.20;99.90
12588;DHT22;6359;51.450;7.346;2022-10-04T19:02:09;10.20;99.90